Latest Coastal Weather Observations for Groote Eylandt Airport

IDD60701

Issued at 5:01 pm CST Friday 18 September 2020 (issued every 10 minutes, with the page automatically refreshed every 10 minutes)

About coastal observations | Map of coastal stations | Coastal observations for NT | Marine services | Other Formats
Station Details ID: 014518 Name: GROOTE EYLANDT AIRPORT Lat: -13.97 Lon: 136.46 Height: 13.7 m
Data from the previous 72 hours. | See also: Recent months at Groote Eylandt Airport
Date/Time
CST
Wind Sea
Height
m
Swell Vis
km
Cloud Weather Temp
°C
Press
hPa
Rain since
9am
mm
Dir  Spd
kts
Gust
kts
Height
m
Period
s
Dir
18/05:00pm E 10 16 - - - - 10 Partly cloudy - 29.3 1011.4 0.0
18/04:30pm E 12 17 - - - - 10 Partly cloudy - 30.6 1011.2 0.0
18/04:00pm E 12 18 - - - - 10 Partly cloudy - 30.9 1011.2 0.0
18/03:30pm ENE 7 14 - - - - 10 Partly cloudy - 29.7 1011.4 0.0
18/03:00pm E 9 13 - - - - 10 Cloudy Showers 29.2 1011.8 0.0
18/02:40pm ENE 15 25 - - - - 10 Partly cloudy - 29.8 1011.9 0.0
18/02:30pm ENE 11 15 - - - - 10 Partly cloudy - 31.1 1011.7 0.0
18/02:00pm ENE 12 16 - - - - 10 Partly cloudy - 29.8 1012.0 0.0
18/01:30pm E 12 18 - - - - 10 Partly cloudy - 31.4 1012.2 0.0
18/01:00pm ESE 10 15 - - - - 10 Partly cloudy - 30.9 1012.4 0.0
18/12:30pm E 9 13 - - - - 10 Partly cloudy - 31.1 1013.1 0.0
18/12:00pm E 9 13 - - - - 10 Cloudy - 30.5 1013.7 0.0
18/11:30am E 13 19 - - - - 10 Partly cloudy - 30.6 1014.1 0.0
18/11:00am E 15 21 - - - - 10 Partly cloudy - 30.8 1014.3 0.0
18/10:30am ENE 14 23 - - - - 10 Partly cloudy - 30.6 1014.4 0.0
18/10:00am E 17 23 - - - - 10 Partly cloudy - 31.2 1014.4 0.0
18/09:30am ENE 13 22 - - - - 10 - - 30.1 1014.3 0.0
18/09:00am ENE 11 16 - - - - 10 Mostly clear - 30.5 1014.2 0.0
18/08:30am E 9 13 - - - - 10 - - 30.0 1014.2 0.0
18/08:00am E 6 8 - - - - 10 - - 28.1 1013.9 0.0
18/07:30am CALM 0 0 - - - - 10 - - 26.3 1013.9 0.0
18/07:00am CALM 0 0 - - - - 10 - - 24.9 1013.4 0.0
18/06:30am CALM 0 0 - - - - 10 - - 23.8 1012.9 0.0
18/06:00am CALM 0 0 - - - - 10 Partly cloudy - 23.6 1012.6 0.0
18/05:30am CALM 0 0 - - - - 10 Partly cloudy - 23.9 1012.2 0.0
18/05:00am CALM 0 0 - - - - 10 Partly cloudy - 24.1 1012.0 0.0
18/04:30am ESE 1 4 - - - - 10 Partly cloudy - 24.1 1011.9 0.0
18/04:00am CALM 0 0 - - - - 10 Partly cloudy - 24.3 1011.9 0.0
18/03:30am SE 1 3 - - - - 10 Partly cloudy - 24.7 1012.0 0.0
18/03:00am CALM 0 0 - - - - 10 Cloudy - 25.0 1012.2 0.0
18/02:30am CALM 0 0 - - - - 10 Partly cloudy - 25.1 1012.5 0.0
18/02:00am CALM 0 0 - - - - 10 Partly cloudy - 24.9 1012.8 0.0
18/01:30am CALM 0 0 - - - - 10 Cloudy - 24.9 1012.8 0.0
18/01:00am CALM 0 4 - - - - 10 Cloudy - 24.6 1013.2 0.0
18/12:30am CALM 0 0 - - - - 10 Partly cloudy - 24.4 1013.5 0.0
18/12:00am SE 1 3 - - - - 10 - - 24.8 1013.7 0.0
 
Date/Time
CST
Wind Sea
Height
m
Swell Vis
km
Cloud Weather Temp
°C
Press
hPa
Rain since
9am
mm
Dir  Spd
kts
Gust
kts
Height
m
Period
s
Dir
17/11:30pm ESE 1 3 - - - - 10 - - 24.6 1013.9 0.0
17/11:00pm ESE 2 4 - - - - 10 - - 24.7 1013.9 0.0
17/10:30pm CALM 0 0 - - - - 10 - - 25.0 1013.7 0.0
17/10:00pm CALM 0 0 - - - - 10 - - 25.5 1013.3 0.0
17/09:30pm CALM 0 0 - - - - 10 - - 26.0 1013.5 0.0
17/09:00pm ENE 4 5 - - - - 10 Cloudy - 26.3 1013.5 0.0
17/08:30pm ENE 5 7 - - - - 10 - - 26.5 1013.2 0.0
17/08:00pm E 6 7 - - - - 10 - - 26.7 1012.8 0.0
17/07:30pm ENE 5 7 - - - - 10 - - 26.8 1012.5 0.0
17/07:00pm ENE 6 9 - - - - 10 - - 27.1 1012.3 0.0
17/06:30pm ENE 7 11 - - - - 10 - - 27.7 1011.9 0.0
17/06:00pm ENE 9 11 - - - - 10 Cloudy - 28.5 1011.6 0.0
17/05:30pm ENE 11 14 - - - - 10 - - 29.5 1011.4 0.0
17/05:00pm E 11 15 - - - - 10 - - 30.6 1011.1 0.0
17/04:30pm E 10 14 - - - - 10 - - 31.3 1010.9 0.0
17/04:00pm ENE 11 17 - - - - 10 Partly cloudy - 31.9 1010.7 0.0
17/03:30pm NE 7 11 - - - - 10 Partly cloudy - 32.7 1010.9 0.0
17/03:00pm NNW 7 11 - - - - 10 Mostly cloudy - 31.0 1011.0 0.0
17/02:30pm WNW 10 14 - - - - 10 Partly cloudy - 30.2 1011.5 0.0
17/02:00pm W 10 14 - - - - 10 Partly cloudy - 29.8 1011.8 0.0
17/01:30pm W 9 15 - - - - 10 Partly cloudy - 29.8 1012.2 0.0
17/01:00pm W 9 12 - - - - 10 Partly cloudy - 29.7 1012.7 0.0
17/12:30pm SW 7 12 - - - - 10 Partly cloudy - 29.9 1012.9 0.0
17/12:00pm ENE 6 11 - - - - 10 Partly cloudy - 32.4 1013.7 0.0
17/11:30am E 10 14 - - - - 10 - - 32.7 1014.0 0.0
17/11:00am ENE 11 16 - - - - 10 - - 32.0 1014.2 0.0
17/10:30am ENE 12 16 - - - - 10 - - 31.6 1014.4 0.0
17/10:00am E 11 15 - - - - 10 - - 31.0 1014.4 0.0
17/09:30am CALM 0 0 - - - - 10 - - 28.5 1014.7 0.0
17/09:00am SE 3 5 - - - - 10 Mostly cloudy - 27.5 1014.3 0.0
17/08:30am CALM 0 4 - - - - 10 - - 26.2 1014.2 0.0
17/08:00am CALM 0 0 - - - - 10 - - 24.8 1013.8 0.0
17/07:30am E 1 4 - - - - 10 - - 24.2 1013.3 0.0
17/07:00am CALM 0 0 - - - - 10 - - 22.0 1013.2 0.0
17/06:30am CALM 0 0 - - - - 10 - - 21.3 1012.7 0.0
17/06:00am CALM 0 0 - - - - 10 Cloudy - 21.2 1012.4 0.0
17/05:30am CALM 0 0 - - - - 10 - - 21.3 1012.3 0.0
17/05:00am CALM 0 0 - - - - 10 - - 21.3 1012.0 0.0
17/04:30am E 1 4 - - - - 10 - - 21.2 1011.8 0.0
17/04:00am CALM 0 0 - - - - 10 - - 21.5 1011.9 0.0
17/03:30am CALM 0 0 - - - - 10 - - 21.4 1011.9 0.0
17/03:00am CALM 0 0 - - - - 10 Mostly cloudy - 21.3 1012.2 0.0
17/02:30am CALM 0 0 - - - - 10 - - 21.6 1012.3 0.0
17/02:00am CALM 0 0 - - - - 10 - - 22.4 1012.4 0.0
17/01:30am CALM 0 0 - - - - 10 - - 22.9 1012.6 0.0
17/01:00am CALM 0 0 - - - - 10 - - 22.6 1013.0 0.0
17/12:30am CALM 0 0 - - - - 10 - - 22.6 1013.2 0.0
17/12:00am CALM 0 0 - - - - 10 Cloudy - 22.9 1013.5 0.0
 
Date/Time
CST
Wind Sea
Height
m
Swell Vis
km
Cloud Weather Temp
°C
Press
hPa
Rain since
9am
mm
Dir  Spd
kts
Gust
kts
Height
m
Period
s
Dir
16/11:30pm CALM 0 0 - - - - 10 - - 22.9 1013.9 0.0
16/11:00pm CALM 0 0 - - - - 10 - - 22.9 1014.1 0.0
16/10:30pm CALM 0 1 - - - - 10 - - 23.3 1014.2 0.0
16/10:00pm CALM 0 0 - - - - 10 - - 24.0 1014.3 0.0
16/09:30pm ESE 4 5 - - - - 10 - - 24.5 1014.4 0.0
16/09:00pm ESE 2 5 - - - - 10 - - 24.7 1014.4 0.0
16/08:30pm ESE 5 6 - - - - 10 - - 25.4 1014.0 0.0
16/08:00pm E 7 8 - - - - 10 - - 25.8 1013.8 0.0
16/07:30pm ESE 6 9 - - - - 10 - - 26.2 1013.4 0.0
16/07:00pm ESE 6 8 - - - - 10 - - 26.6 1013.0 0.0
16/06:30pm ESE 7 9 - - - - 10 - - 27.4 1012.7 0.0
16/06:00pm ESE 9 12 - - - - 10 - - 28.1 1012.5 0.0
16/05:30pm E 11 14 - - - - 10 - - 29.1 1012.3 0.0
16/05:00pm E 9 12 - - - - 10 - - 30.5 1012.1 0.0
16/04:30pm E 9 14 - - - - 10 - - 30.3 1012.1 0.0
16/04:00pm SE 6 11 - - - - 10 Partly cloudy - 30.8 1011.9 0.0
16/03:30pm NNW 3 8 - - - - 10 Partly cloudy - 29.6 1011.8 0.0
16/03:00pm NW 7 11 - - - - 10 Mostly cloudy - 29.7 1012.1 0.0
16/02:30pm NNE 6 9 - - - - 10 Partly cloudy - 31.3 1012.2 0.0
16/02:00pm E 9 16 - - - - 10 Partly cloudy - 32.0 1012.6 0.0
16/01:30pm E 9 14 - - - - 10 Partly cloudy - 31.7 1012.9 0.0
16/01:00pm E 9 14 - - - - 10 Partly cloudy - 31.5 1013.4 0.0
16/12:30pm ENE 10 16 - - - - 10 Partly cloudy - 32.4 1013.7 0.0
16/12:00pm ENE 11 18 - - - - 10 Mostly clear - 32.0 1014.1 0.0
16/11:30am ENE 11 17 - - - - 10 Partly cloudy - 31.9 1014.4 0.0
16/11:00am ENE 11 17 - - - - 10 - - 31.1 1015.0 0.0
16/10:30am E 12 18 - - - - 10 - - 31.0 1015.3 0.0
16/10:00am ENE 11 16 - - - - 10 - - 31.0 1015.4 0.0
16/09:30am ENE 10 14 - - - - 10 - - 30.3 1015.3 0.0
16/09:00am ESE 5 12 - - - - 10 Mostly clear - 30.2 1015.1 0.0
16/08:30am CALM 0 0 - - - - 10 Partly cloudy - 26.2 1015.1 0.0
16/08:00am CALM 0 0 - - - - 10 Partly cloudy - 23.2 1014.9 0.0
16/07:30am SSE 2 5 - - - - 10 Partly cloudy - 20.5 1014.6 0.0
16/07:00am CALM 0 0 - - - - 10 Partly cloudy - 19.0 1014.0 0.0
16/06:30am CALM 0 0 - - - - 10 Partly cloudy - 18.6 1013.8 0.0
16/06:00am CALM 0 0 - - - - 10 Mostly cloudy - 18.1 1013.2 0.0
16/05:30am CALM 0 0 - - - - 10 Partly cloudy - 18.1 1012.7 0.0
16/05:00am CALM 0 0 - - - - 10 Partly cloudy - 17.6 1012.6 0.0
16/04:30am CALM 0 0 - - - - 10 Partly cloudy - 17.2 1012.2 0.0
16/04:00am CALM 0 0 - - - - 10 Partly cloudy - 17.3 1012.0 0.0
16/03:30am CALM 0 0 - - - - 10 - - 17.5 1012.1 0.0
16/03:00am CALM 0 0 - - - - 10 - - 17.6 1012.4 0.0
16/02:30am CALM 0 0 - - - - 10 - - 18.2 1012.6 0.0
16/02:00am CALM 0 0 - - - - 10 - - 18.8 1012.9 0.0
16/01:30am CALM 0 0 - - - - 10 - - 19.0 1013.3 0.0
16/01:00am CALM 0 0 - - - - 10 - - 19.6 1013.6 0.0
16/12:30am CALM 0 0 - - - - 10 - - 20.1 1014.0 0.0
16/12:00am CALM 0 0 - - - - 10 - - 20.5 1014.4 0.0
 
Date/Time
CST
Wind Sea
Height
m
Swell Vis
km
Cloud Weather Temp
°C
Press
hPa
Rain since
9am
mm
Dir  Spd
kts
Gust
kts
Height
m
Period
s
Dir
15/11:30pm CALM 0 0 - - - - 10 - - 21.3 1014.8 0.0
15/11:00pm CALM 0 0 - - - - 10 - - 22.5 1014.9 0.0
15/10:30pm CALM 0 0 - - - - 10 - - 22.9 1015.2 0.0
15/10:00pm CALM 0 0 - - - - 10 - - 23.2 1015.2 0.0
15/09:30pm CALM 0 0 - - - - 10 - - 23.7 1015.2 0.0
15/09:00pm ESE 1 4 - - - - 10 - - 24.0 1015.0 0.0
15/08:30pm ESE 2 4 - - - - 10 - - 24.5 1014.9 0.0
15/08:00pm ESE 3 6 - - - - 10 - - 25.1 1014.8 0.0
15/07:30pm ESE 4 6 - - - - 10 - - 25.5 1014.4 0.0
15/07:00pm ESE 6 9 - - - - 10 - - 26.0 1014.0 0.0
15/06:30pm E 7 10 - - - - 10 - - 26.5 1013.7 0.0
15/06:00pm E 10 14 - - - - 10 - - 27.4 1013.3 0.0
15/05:30pm E 8 11 - - - - 10 - - 28.8 1012.9 0.0

Other formats

Comma delimited format used in spreadsheet applications
http://www.bom.gov.au/fwo/IDD60701/IDD60701.94153.axf

JavaScript Object Notation format (JSON) in row-major order
http://www.bom.gov.au/fwo/IDD60701/IDD60701.94153.json

Data quality

Most of these data are generated automatically and are frequently updated. Quality checks on data are not normally performed. It is possible for incorrect values to appear. Refer to information at About Latest Weather Observations and please check the disclaimer before using these data.